createdAt,value
2023-01-18T00:00:16.641Z,29.595
2023-01-18T00:05:16.564Z,29.596
2023-01-18T00:10:16.535Z,29.593
2023-01-18T00:15:16.503Z,29.592
2023-01-18T00:20:16.452Z,29.591
2023-01-18T00:25:16.571Z,29.589
2023-01-18T00:30:16.651Z,29.587
2023-01-18T00:35:16.547Z,29.588
2023-01-18T00:40:16.526Z,29.589
2023-01-18T00:45:16.535Z,29.588
2023-01-18T00:50:16.733Z,29.590
2023-01-18T00:55:16.517Z,29.585
2023-01-18T01:00:16.621Z,29.587
2023-01-18T01:05:16.563Z,29.586
2023-01-18T01:10:16.616Z,29.580
2023-01-18T01:15:16.591Z,29.580
2023-01-18T01:20:16.751Z,29.583
2023-01-18T01:25:16.588Z,29.586
2023-01-18T01:30:16.663Z,29.587
2023-01-18T01:35:16.666Z,29.589
2023-01-18T01:40:16.817Z,29.592
2023-01-18T01:45:16.808Z,29.592
2023-01-18T01:50:16.769Z,29.594
2023-01-18T01:55:16.661Z,29.592
2023-01-18T02:00:16.695Z,29.590
2023-01-18T02:05:16.764Z,29.587
2023-01-18T02:10:16.748Z,29.583
2023-01-18T02:15:18.599Z,29.584
2023-01-18T02:20:16.778Z,29.586
2023-01-18T02:25:16.727Z,29.587
2023-01-18T02:30:16.747Z,29.588
2023-01-18T02:35:16.879Z,29.586
2023-01-18T02:40:16.907Z,29.586
2023-01-18T02:45:16.914Z,29.585
2023-01-18T02:50:16.823Z,29.585
2023-01-18T02:55:16.913Z,29.582
2023-01-18T03:00:16.939Z,29.582
2023-01-18T03:05:17.055Z,29.582
2023-01-18T03:10:16.895Z,29.581
2023-01-18T03:15:16.798Z,29.583
2023-01-18T03:20:16.909Z,29.581
2023-01-18T03:25:16.907Z,29.578
2023-01-18T03:30:16.971Z,29.575
2023-01-18T03:35:16.961Z,29.579
2023-01-18T03:40:16.939Z,29.578
2023-01-18T03:45:16.943Z,29.580
2023-01-18T03:50:16.938Z,29.579
2023-01-18T03:55:16.964Z,29.578
2023-01-18T04:00:16.955Z,29.579
2023-01-18T04:05:17.117Z,29.579
2023-01-18T04:10:16.960Z,29.576
2023-01-18T04:15:16.958Z,29.574
2023-01-18T04:20:17.013Z,29.576
2023-01-18T04:25:17.051Z,29.576
2023-01-18T04:30:17.039Z,29.578
2023-01-18T04:35:17.065Z,29.576
2023-01-18T04:40:17.105Z,29.574
2023-01-18T04:45:17.028Z,29.572
2023-01-18T04:50:17.153Z,29.569
2023-01-18T04:55:17.060Z,29.568
2023-01-18T05:00:16.127Z,29.568
2023-01-18T05:05:16.132Z,29.568
2023-01-18T05:10:16.151Z,29.566
2023-01-18T05:15:16.198Z,29.562
2023-01-18T05:20:16.120Z,29.560
2023-01-18T05:25:16.259Z,29.555
2023-01-18T05:30:16.187Z,29.555
2023-01-18T05:35:16.138Z,29.557
2023-01-18T05:40:16.169Z,29.557
2023-01-18T05:45:16.379Z,29.556
2023-01-18T05:50:16.356Z,29.559
2023-01-18T05:55:16.205Z,29.561
2023-01-18T06:00:16.258Z,29.560
2023-01-18T06:05:16.564Z,29.562
2023-01-18T06:10:16.248Z,29.560
2023-01-18T06:15:16.240Z,29.559
2023-01-18T06:20:16.362Z,29.555
2023-01-18T06:25:16.327Z,29.557
2023-01-18T06:30:16.437Z,29.555
2023-01-18T06:35:16.337Z,29.554
2023-01-18T06:40:16.365Z,29.557
2023-01-18T06:45:16.593Z,29.559
2023-01-18T06:50:16.304Z,29.557
2023-01-18T06:55:16.529Z,29.557
2023-01-18T07:00:16.423Z,29.557
2023-01-18T07:05:16.386Z,29.554
2023-01-18T07:10:16.943Z,29.556
2023-01-18T07:15:21.556Z,29.555
2023-01-18T07:20:16.472Z,29.558
2023-01-18T07:25:16.485Z,29.557
2023-01-18T07:30:16.679Z,29.554
2023-01-18T07:35:16.492Z,29.555
2023-01-18T07:40:16.475Z,29.551
2023-01-18T07:45:16.485Z,29.554
2023-01-18T07:50:16.599Z,29.554
2023-01-18T07:55:16.397Z,29.556
2023-01-18T08:00:16.595Z,29.554
2023-01-18T08:05:16.511Z,29.554
2023-01-18T08:10:16.481Z,29.550
2023-01-18T08:15:16.543Z,29.549
2023-01-18T08:20:16.651Z,29.545
2023-01-18T08:25:16.559Z,29.541
2023-01-18T08:30:16.643Z,29.541
2023-01-18T08:35:16.638Z,29.541
2023-01-18T08:40:16.780Z,29.540
2023-01-18T08:45:16.672Z,29.546
2023-01-18T08:50:16.628Z,29.550
2023-01-18T08:55:16.571Z,29.554
2023-01-18T09:00:16.805Z,29.556
2023-01-18T09:05:16.780Z,29.554
2023-01-18T09:10:16.617Z,29.556
2023-01-18T09:15:16.629Z,29.558
2023-01-18T09:20:18.895Z,29.562
2023-01-18T09:25:16.690Z,29.565
2023-01-18T09:30:16.629Z,29.571
2023-01-18T09:35:16.696Z,29.574
2023-01-18T09:40:16.784Z,29.573
2023-01-18T09:45:17.655Z,29.576
2023-01-18T09:50:16.882Z,29.576
2023-01-18T09:55:16.714Z,29.580
2023-01-18T10:00:16.869Z,29.581
2023-01-18T10:05:16.975Z,29.581
2023-01-18T10:10:16.893Z,29.581
2023-01-18T10:15:16.908Z,29.581
2023-01-18T10:20:16.950Z,29.579
2023-01-18T10:25:16.852Z,29.576
2023-01-18T10:30:16.856Z,29.581
2023-01-18T10:35:16.931Z,29.581
2023-01-18T10:40:16.891Z,29.580
2023-01-18T10:45:16.820Z,29.578
2023-01-18T10:50:17.001Z,29.578
2023-01-18T10:55:17.040Z,29.576
2023-01-18T11:00:16.938Z,29.581
2023-01-18T11:05:16.978Z,29.578
2023-01-18T11:10:16.941Z,29.579
2023-01-18T11:15:17.039Z,29.585
2023-01-18T11:20:16.993Z,29.586
2023-01-18T11:25:16.950Z,29.589
2023-01-18T11:30:17.066Z,29.593
2023-01-18T11:35:17.014Z,29.587
2023-01-18T11:40:17.096Z,29.588
2023-01-18T11:45:17.018Z,29.586
2023-01-18T11:50:22.279Z,29.587
2023-01-18T11:55:16.942Z,29.590
2023-01-18T12:00:17.120Z,29.589
2023-01-18T12:05:17.194Z,29.591
2023-01-18T12:10:16.996Z,29.591
2023-01-18T12:15:17.007Z,29.592
2023-01-18T12:20:17.086Z,29.596
2023-01-18T12:25:17.227Z,29.597
2023-01-18T12:30:17.135Z,29.603
2023-01-18T12:35:23.978Z,29.604
2023-01-18T12:40:17.416Z,29.606
2023-01-18T12:45:17.159Z,29.610
2023-01-18T12:50:17.316Z,29.611
2023-01-18T12:55:17.152Z,29.614
2023-01-18T13:00:17.153Z,29.616
2023-01-18T13:05:17.126Z,29.618
2023-01-18T13:10:17.258Z,29.621
2023-01-18T13:15:17.195Z,29.622
2023-01-18T13:20:17.212Z,29.624
2023-01-18T13:25:17.171Z,29.622
2023-01-18T13:30:17.314Z,29.625
2023-01-18T13:35:22.044Z,29.625
2023-01-18T13:40:17.278Z,29.627
2023-01-18T13:45:17.567Z,29.630
2023-01-18T13:50:17.353Z,29.632
2023-01-18T13:55:17.215Z,29.633
2023-01-18T14:00:17.308Z,29.634
2023-01-18T14:05:17.311Z,29.634
2023-01-18T14:10:17.397Z,29.636
2023-01-18T14:15:17.677Z,29.635
2023-01-18T14:20:17.307Z,29.635
2023-01-18T14:25:17.374Z,29.635
2023-01-18T14:30:17.318Z,29.638
2023-01-18T14:35:17.396Z,29.639
2023-01-18T14:40:15.459Z,29.639
2023-01-18T14:45:15.536Z,29.641
2023-01-18T14:50:15.371Z,29.639
2023-01-18T14:55:15.483Z,29.641
2023-01-18T15:00:15.517Z,29.640
2023-01-18T15:05:15.570Z,29.641
2023-01-18T15:10:15.472Z,29.643
2023-01-18T15:15:15.525Z,29.641
2023-01-18T15:20:15.535Z,29.639
2023-01-18T15:25:15.539Z,29.640
2023-01-18T15:30:15.492Z,29.638
2023-01-18T15:35:15.579Z,29.636
2023-01-18T15:40:15.492Z,29.635
2023-01-18T15:45:15.563Z,29.634
2023-01-18T15:50:15.584Z,29.633
2023-01-18T15:55:15.689Z,29.629
2023-01-18T16:00:15.759Z,29.630
2023-01-18T16:05:15.621Z,29.629
2023-01-18T16:10:15.612Z,29.625
2023-01-18T16:15:15.676Z,29.625
2023-01-18T16:20:15.604Z,29.625
2023-01-18T16:25:15.556Z,29.623
2023-01-18T16:30:15.687Z,29.623
2023-01-18T16:35:15.783Z,29.621
2023-01-18T16:40:15.765Z,29.619
2023-01-18T16:45:15.662Z,29.617
2023-01-18T16:50:15.696Z,29.614
2023-01-18T16:55:15.817Z,29.614
2023-01-18T17:00:15.693Z,29.611
2023-01-18T17:05:15.809Z,29.610
2023-01-18T17:10:15.738Z,29.609
2023-01-18T17:15:15.709Z,29.609
2023-01-18T17:20:15.944Z,29.609
2023-01-18T17:25:15.848Z,29.609
2023-01-18T17:30:15.814Z,29.608
2023-01-18T17:35:15.761Z,29.606
2023-01-18T17:40:23.557Z,29.603
2023-01-18T17:45:15.888Z,29.606
2023-01-18T17:50:15.778Z,29.604
2023-01-18T17:55:17.861Z,29.601
2023-01-18T18:00:15.888Z,29.599
2023-01-18T18:05:15.865Z,29.600
2023-01-18T18:10:15.898Z,29.599
2023-01-18T18:15:15.927Z,29.602
2023-01-18T18:20:15.949Z,29.605
2023-01-18T18:25:15.915Z,29.605
2023-01-18T18:30:15.985Z,29.602
2023-01-18T18:35:25.765Z,29.604
2023-01-18T18:40:15.878Z,29.603
2023-01-18T18:45:15.957Z,29.609
2023-01-18T18:50:15.932Z,29.608
2023-01-18T18:55:16.016Z,29.609
2023-01-18T19:00:16.060Z,29.610
2023-01-18T19:05:15.948Z,29.611
2023-01-18T19:10:16.095Z,29.614
2023-01-18T19:15:16.033Z,29.616
2023-01-18T19:20:16.002Z,29.618
2023-01-18T19:25:16.003Z,29.623
2023-01-18T19:30:16.091Z,29.623
2023-01-18T19:35:16.066Z,29.630
2023-01-18T19:40:16.151Z,29.634
2023-01-18T19:45:23.164Z,29.632
2023-01-18T19:50:16.075Z,29.634
2023-01-18T19:55:16.088Z,29.632
2023-01-18T20:00:16.122Z,29.637
2023-01-18T20:05:16.339Z,29.641
2023-01-18T20:10:16.081Z,29.641
2023-01-18T20:15:16.109Z,29.639
2023-01-18T20:20:24.213Z,29.638
2023-01-18T20:25:16.095Z,29.642
2023-01-18T20:30:16.120Z,29.647
2023-01-18T20:35:16.208Z,29.648
2023-01-18T20:40:16.379Z,29.651
2023-01-18T20:45:16.330Z,29.652
2023-01-18T20:50:16.291Z,29.653
2023-01-18T20:55:16.212Z,29.661
2023-01-18T21:00:16.262Z,29.661
2023-01-18T21:05:16.296Z,29.667
2023-01-18T21:10:16.949Z,29.668
2023-01-18T21:15:16.217Z,29.674
2023-01-18T21:20:16.282Z,29.678
2023-01-18T21:25:16.351Z,29.682
2023-01-18T21:30:16.299Z,29.682
2023-01-18T21:35:16.332Z,29.692
2023-01-18T21:40:16.377Z,29.692
2023-01-18T21:45:16.400Z,29.690
2023-01-18T21:50:18.065Z,29.696
2023-01-18T21:55:16.432Z,29.700
2023-01-18T22:00:16.437Z,29.707
2023-01-18T22:05:16.334Z,29.709
2023-01-18T22:10:16.427Z,29.715
2023-01-18T22:15:16.335Z,29.720
2023-01-18T22:20:16.363Z,29.722
2023-01-18T22:25:16.592Z,29.724
2023-01-18T22:30:16.420Z,29.726
2023-01-18T22:35:16.439Z,29.730
2023-01-18T22:40:16.543Z,29.732
2023-01-18T22:45:16.437Z,29.736
2023-01-18T22:50:16.445Z,29.736
2023-01-18T22:55:16.820Z,29.737
2023-01-18T23:00:16.690Z,29.736
2023-01-18T23:05:16.530Z,29.737
2023-01-18T23:10:16.601Z,29.744
2023-01-18T23:15:16.508Z,29.747
2023-01-18T23:20:16.608Z,29.748
2023-01-18T23:25:16.557Z,29.748
2023-01-18T23:30:16.685Z,29.751
2023-01-18T23:35:16.718Z,29.757
2023-01-18T23:40:16.590Z,29.760
2023-01-18T23:45:16.656Z,29.763
2023-01-18T23:50:16.643Z,29.765
2023-01-18T23:55:16.533Z,29.765
